This is the latest recevied weather packets stored in our database for station/object DO6GZ. If no packets are shown the sender has not sent any weather packets the latest 10 day(s).
| Time | Temp. | Humidity | Pressure | Rain* | Wind** | Luminosity | Snow |
|---|---|---|---|---|---|---|---|
| 1787673090 | 24.44° C | 43% | 1016.7 hPa | 0 mm | - | - | - |
| 1787672462 | 24.44° C | 43% | 1016.8 hPa | 0 mm | - | - | - |
| 1787671835 | 24.44° C | 43% | 1016.7 hPa | 0 mm | - | - | - |
| 1787671207 | 24.44° C | 43% | 1016.7 hPa | 0 mm | - | - | - |
| 1787670580 | 25° C | 43% | 1016.6 hPa | 0 mm | - | - | - |
| 1787669952 | 25° C | 42% | 1016.5 hPa | 0 mm | - | - | - |
| 1787669325 | 24.44° C | 44% | 1016.8 hPa | 0 mm | - | - | - |
| 1787668697 | 24.44° C | 43% | 1016.6 hPa | 0 mm | - | - | - |
| 1787668070 | 24.44° C | 43% | 1016.4 hPa | 0 mm | - | - | - |
| 1787667442 | 24.44° C | 43% | 1016.4 hPa | 0 mm | - | - | - |
| 1787666814 | 24.44° C | 44% | 1016.5 hPa | 0 mm | - | - | - |
| 1787666187 | 24.44° C | 46% | 1016.7 hPa | 0 mm | - | - | - |
| 1787665560 | 25° C | 45% | 1016.6 hPa | 0 mm | - | - | - |
| 1787664932 | 25° C | 44% | 1016.6 hPa | 0 mm | - | - | - |
| 1787664304 | 25.56° C | 45% | 1016.6 hPa | 0 mm | - | - | - |
| 1787663677 | 25° C | 46% | 1016.6 hPa | 0 mm | - | - | - |
| 1787663049 | 25° C | 45% | 1016.6 hPa | 0 mm | - | - | - |
| 1787662422 | 25° C | 48% | 1016.8 hPa | 0 mm | - | - | - |
| 1787661795 | 25° C | 47% | 1016.8 hPa | 0 mm | - | - | - |
| 1787661167 | 24.44° C | 48% | 1016.8 hPa | 0 mm | - | - | - |
| 1787660539 | 24.44° C | 50% | 1017 hPa | 0 mm | - | - | - |
| 1787659912 | 23.89° C | 52% | 1017 hPa | 0 mm | - | - | - |
| 1787659284 | 23.89° C | 54% | 1017.3 hPa | 0 mm | - | - | - |
| 1787658656 | 22.78° C | 55% | 1017.3 hPa | 0 mm | - | - | - |
| 1787658029 | 22.78° C | 60% | 1017.3 hPa | 0 mm | - | - | - |
* Rain latest hour (hover to see other rain measurements)
** Current wind speed in m/s (hover to see current wind gust speed)